sensor_id;sensor_type;location;lat;lon;timestamp;temperature;humidity
38784;DHT22;24531;45.502;12.238;2023-01-24T00:02:04;10.40;98.20
38784;DHT22;24531;45.502;12.238;2023-01-24T00:04:30;10.30;98.20
38784;DHT22;24531;45.502;12.238;2023-01-24T00:06:55;10.30;98.10
38784;DHT22;24531;45.502;12.238;2023-01-24T00:09:21;10.30;98.10
38784;DHT22;24531;45.502;12.238;2023-01-24T00:11:47;10.30;98.10
38784;DHT22;24531;45.502;12.238;2023-01-24T00:14:12;10.30;98.10
38784;DHT22;24531;45.502;12.238;2023-01-24T00:16:38;10.30;98.00
38784;DHT22;24531;45.502;12.238;2023-01-24T00:19:03;10.30;98.00
38784;DHT22;24531;45.502;12.238;2023-01-24T00:21:29;10.30;98.00
38784;DHT22;24531;45.502;12.238;2023-01-24T00:23:55;10.30;98.00
38784;DHT22;24531;45.502;12.238;2023-01-24T00:26:22;10.30;98.00
38784;DHT22;24531;45.502;12.238;2023-01-24T00:28:48;10.30;97.90
38784;DHT22;24531;45.502;12.238;2023-01-24T00:31:15;10.30;97.90
38784;DHT22;24531;45.502;12.238;2023-01-24T00:33:41;10.20;97.90
38784;DHT22;24531;45.502;12.238;2023-01-24T00:36:07;10.20;98.00
38784;DHT22;24531;45.502;12.238;2023-01-24T00:38:33;10.20;98.00
38784;DHT22;24531;45.502;12.238;2023-01-24T00:40:59;10.20;98.00
38784;DHT22;24531;45.502;12.238;2023-01-24T00:43:25;10.20;98.00
38784;DHT22;24531;45.502;12.238;2023-01-24T00:45:54;10.20;97.90
38784;DHT22;24531;45.502;12.238;2023-01-24T00:48:20;10.30;97.90
38784;DHT22;24531;45.502;12.238;2023-01-24T00:50:46;10.20;97.90
38784;DHT22;24531;45.502;12.238;2023-01-24T00:53:11;10.20;97.90
38784;DHT22;24531;45.502;12.238;2023-01-24T00:55:44;10.20;97.80
38784;DHT22;24531;45.502;12.238;2023-01-24T00:58:10;10.20;97.90
38784;DHT22;24531;45.502;12.238;2023-01-24T01:00:36;10.30;97.90
38784;DHT22;24531;45.502;12.238;2023-01-24T01:03:05;10.30;97.90
38784;DHT22;24531;45.502;12.238;2023-01-24T01:05:30;10.30;97.80
38784;DHT22;24531;45.502;12.238;2023-01-24T01:07:56;10.30;97.80
38784;DHT22;24531;45.502;12.238;2023-01-24T01:10:22;10.30;97.90
38784;DHT22;24531;45.502;12.238;2023-01-24T01:12:47;10.30;97.90
38784;DHT22;24531;45.502;12.238;2023-01-24T01:15:13;10.40;97.90
38784;DHT22;24531;45.502;12.238;2023-01-24T01:17:38;10.40;97.80
38784;DHT22;24531;45.502;12.238;2023-01-24T01:20:05;10.40;97.80
38784;DHT22;24531;45.502;12.238;2023-01-24T01:22:31;10.40;97.80
38784;DHT22;24531;45.502;12.238;2023-01-24T01:24:56;10.40;97.80
38784;DHT22;24531;45.502;12.238;2023-01-24T01:27:22;10.40;97.80
38784;DHT22;24531;45.502;12.238;2023-01-24T01:29:48;10.50;97.80
38784;DHT22;24531;45.502;12.238;2023-01-24T01:32:13;10.50;97.80
38784;DHT22;24531;45.502;12.238;2023-01-24T01:34:39;10.50;97.80
38784;DHT22;24531;45.502;12.238;2023-01-24T01:37:04;10.50;97.70
38784;DHT22;24531;45.502;12.238;2023-01-24T01:39:30;10.50;97.70
38784;DHT22;24531;45.502;12.238;2023-01-24T01:41:56;10.50;97.70
38784;DHT22;24531;45.502;12.238;2023-01-24T01:44:23;10.40;97.70
38784;DHT22;24531;45.502;12.238;2023-01-24T01:52:40;10.40;97.70
38784;DHT22;24531;45.502;12.238;2023-01-24T01:55:13;10.30;97.60
38784;DHT22;24531;45.502;12.238;2023-01-24T01:57:39;10.20;97.60
38784;DHT22;24531;45.502;12.238;2023-01-24T02:00:11;10.30;97.70
38784;DHT22;24531;45.502;12.238;2023-01-24T02:02:38;10.20;97.60
38784;DHT22;24531;45.502;12.238;2023-01-24T02:05:07;10.20;97.60
38784;DHT22;24531;45.502;12.238;2023-01-24T02:07:44;10.20;97.60
38784;DHT22;24531;45.502;12.238;2023-01-24T02:10:10;10.10;97.70
38784;DHT22;24531;45.502;12.238;2023-01-24T02:12:39;10.10;97.70
38784;DHT22;24531;45.502;12.238;2023-01-24T02:15:14;10.10;97.70
38784;DHT22;24531;45.502;12.238;2023-01-24T02:17:58;10.10;97.70
38784;DHT22;24531;45.502;12.238;2023-01-24T02:26:31;10.00;97.80
38784;DHT22;24531;45.502;12.238;2023-01-24T02:28:32;10.00;97.80
38784;DHT22;24531;45.502;12.238;2023-01-24T02:30:59;10.00;97.80
38784;DHT22;24531;45.502;12.238;2023-01-24T02:33:25;9.90;97.70
38784;DHT22;24531;45.502;12.238;2023-01-24T02:39:08;9.80;97.80
38784;DHT22;24531;45.502;12.238;2023-01-24T02:41:59;9.80;97.90
38784;DHT22;24531;45.502;12.238;2023-01-24T02:44:34;9.80;97.90
38784;DHT22;24531;45.502;12.238;2023-01-24T02:47:03;9.80;97.80
38784;DHT22;24531;45.502;12.238;2023-01-24T02:49:29;9.80;97.80
38784;DHT22;24531;45.502;12.238;2023-01-24T02:51:54;9.80;97.80
38784;DHT22;24531;45.502;12.238;2023-01-24T02:54:39;9.70;97.80
38784;DHT22;24531;45.502;12.238;2023-01-24T02:57:05;9.70;97.80
38784;DHT22;24531;45.502;12.238;2023-01-24T02:59:49;9.70;97.80
38784;DHT22;24531;45.502;12.238;2023-01-24T03:02:14;9.70;97.80
38784;DHT22;24531;45.502;12.238;2023-01-24T03:04:40;9.60;97.80
38784;DHT22;24531;45.502;12.238;2023-01-24T03:07:06;9.60;97.80
38784;DHT22;24531;45.502;12.238;2023-01-24T03:09:32;9.50;97.90
38784;DHT22;24531;45.502;12.238;2023-01-24T03:12:02;9.50;97.90
38784;DHT22;24531;45.502;12.238;2023-01-24T03:14:47;9.40;97.90
38784;DHT22;24531;45.502;12.238;2023-01-24T03:17:31;9.40;97.90
38784;DHT22;24531;45.502;12.238;2023-01-24T03:20:16;9.40;98.00
38784;DHT22;24531;45.502;12.238;2023-01-24T03:23:00;9.30;98.00
38784;DHT22;24531;45.502;12.238;2023-01-24T03:25:44;9.30;98.00
38784;DHT22;24531;45.502;12.238;2023-01-24T03:28:29;9.30;98.00
38784;DHT22;24531;45.502;12.238;2023-01-24T03:31:13;9.30;98.10
38784;DHT22;24531;45.502;12.238;2023-01-24T03:33:57;9.30;98.10
38784;DHT22;24531;45.502;12.238;2023-01-24T03:36:41;9.20;98.00
38784;DHT22;24531;45.502;12.238;2023-01-24T03:39:06;9.20;98.00
38784;DHT22;24531;45.502;12.238;2023-01-24T03:41:50;9.20;98.00
38784;DHT22;24531;45.502;12.238;2023-01-24T03:44:16;9.20;98.10
38784;DHT22;24531;45.502;12.238;2023-01-24T03:46:42;9.20;98.10
38784;DHT22;24531;45.502;12.238;2023-01-24T03:49:07;9.20;98.20
38784;DHT22;24531;45.502;12.238;2023-01-24T03:51:34;9.20;98.20
38784;DHT22;24531;45.502;12.238;2023-01-24T03:54:18;9.20;98.20
38784;DHT22;24531;45.502;12.238;2023-01-24T03:56:44;9.20;98.10
38784;DHT22;24531;45.502;12.238;2023-01-24T03:59:10;9.10;98.10
38784;DHT22;24531;45.502;12.238;2023-01-24T04:01:35;9.10;98.10
38784;DHT22;24531;45.502;12.238;2023-01-24T04:04:01;9.00;98.20
38784;DHT22;24531;45.502;12.238;2023-01-24T04:06:27;9.10;98.30
38784;DHT22;24531;45.502;12.238;2023-01-24T04:08:52;9.00;98.30
38784;DHT22;24531;45.502;12.238;2023-01-24T04:11:18;9.00;98.20
38784;DHT22;24531;45.502;12.238;2023-01-24T04:13:44;9.00;98.20
38784;DHT22;24531;45.502;12.238;2023-01-24T04:16:09;8.90;98.20
38784;DHT22;24531;45.502;12.238;2023-01-24T04:18:35;8.90;98.20
38784;DHT22;24531;45.502;12.238;2023-01-24T04:21:04;8.90;98.30
38784;DHT22;24531;45.502;12.238;2023-01-24T04:23:30;8.80;98.30
38784;DHT22;24531;45.502;12.238;2023-01-24T04:25:56;8.80;98.40
38784;DHT22;24531;45.502;12.238;2023-01-24T04:28:25;8.80;98.40
38784;DHT22;24531;45.502;12.238;2023-01-24T04:30:58;8.80;98.50
38784;DHT22;24531;45.502;12.238;2023-01-24T04:33:24;8.80;98.40
38784;DHT22;24531;45.502;12.238;2023-01-24T04:35:50;8.80;98.50
38784;DHT22;24531;45.502;12.238;2023-01-24T04:38:15;8.80;98.50
38784;DHT22;24531;45.502;12.238;2023-01-24T04:40:41;8.90;98.80
38784;DHT22;24531;45.502;12.238;2023-01-24T04:43:07;8.90;98.40
38784;DHT22;24531;45.502;12.238;2023-01-24T04:45:33;8.90;98.40
38784;DHT22;24531;45.502;12.238;2023-01-24T04:47:58;8.80;98.30
38784;DHT22;24531;45.502;12.238;2023-01-24T04:50:24;8.80;98.40
38784;DHT22;24531;45.502;12.238;2023-01-24T04:52:50;8.80;98.40
38784;DHT22;24531;45.502;12.238;2023-01-24T04:55:16;8.80;98.30
38784;DHT22;24531;45.502;12.238;2023-01-24T04:57:41;8.80;98.30
38784;DHT22;24531;45.502;12.238;2023-01-24T05:00:09;8.80;98.30
38784;DHT22;24531;45.502;12.238;2023-01-24T05:02:35;8.80;98.30
38784;DHT22;24531;45.502;12.238;2023-01-24T05:05:03;8.80;98.30
38784;DHT22;24531;45.502;12.238;2023-01-24T05:07:29;8.80;98.30
38784;DHT22;24531;45.502;12.238;2023-01-24T05:09:54;8.80;98.40
38784;DHT22;24531;45.502;12.238;2023-01-24T05:12:20;8.70;98.30
38784;DHT22;24531;45.502;12.238;2023-01-24T05:14:46;8.70;98.30
38784;DHT22;24531;45.502;12.238;2023-01-24T05:17:11;8.70;98.30
38784;DHT22;24531;45.502;12.238;2023-01-24T05:19:37;8.70;98.30
38784;DHT22;24531;45.502;12.238;2023-01-24T05:22:02;8.70;98.30
38784;DHT22;24531;45.502;12.238;2023-01-24T05:24:28;8.70;98.30
38784;DHT22;24531;45.502;12.238;2023-01-24T05:26:54;8.60;98.30
38784;DHT22;24531;45.502;12.238;2023-01-24T05:29:20;8.60;98.30
38784;DHT22;24531;45.502;12.238;2023-01-24T05:31:45;8.50;98.30
38784;DHT22;24531;45.502;12.238;2023-01-24T05:34:11;8.50;98.30
38784;DHT22;24531;45.502;12.238;2023-01-24T05:36:37;8.50;98.70
38784;DHT22;24531;45.502;12.238;2023-01-24T05:39:02;8.50;98.30
38784;DHT22;24531;45.502;12.238;2023-01-24T05:41:28;8.50;98.30
38784;DHT22;24531;45.502;12.238;2023-01-24T05:43:54;8.40;98.30
38784;DHT22;24531;45.502;12.238;2023-01-24T05:46:21;8.40;98.30
38784;DHT22;24531;45.502;12.238;2023-01-24T05:48:48;8.40;98.30
38784;DHT22;24531;45.502;12.238;2023-01-24T05:51:16;8.30;98.30
38784;DHT22;24531;45.502;12.238;2023-01-24T05:53:42;8.30;98.40
38784;DHT22;24531;45.502;12.238;2023-01-24T05:56:13;8.30;98.30
38784;DHT22;24531;45.502;12.238;2023-01-24T05:58:40;8.30;98.30
38784;DHT22;24531;45.502;12.238;2023-01-24T06:01:11;8.30;98.30
38784;DHT22;24531;45.502;12.238;2023-01-24T06:03:39;8.30;98.30
38784;DHT22;24531;45.502;12.238;2023-01-24T06:06:07;8.30;98.30
38784;DHT22;24531;45.502;12.238;2023-01-24T06:08:33;8.20;98.30
38784;DHT22;24531;45.502;12.238;2023-01-24T06:11:07;8.20;98.30
38784;DHT22;24531;45.502;12.238;2023-01-24T06:13:34;8.20;98.40
38784;DHT22;24531;45.502;12.238;2023-01-24T06:16:04;8.20;98.30
38784;DHT22;24531;45.502;12.238;2023-01-24T06:18:31;8.20;98.30
38784;DHT22;24531;45.502;12.238;2023-01-24T06:20:57;8.20;98.30
38784;DHT22;24531;45.502;12.238;2023-01-24T06:23:26;8.20;98.30
38784;DHT22;24531;45.502;12.238;2023-01-24T06:25:52;8.20;98.30
38784;DHT22;24531;45.502;12.238;2023-01-24T06:28:18;8.20;98.30
38784;DHT22;24531;45.502;12.238;2023-01-24T06:30:48;8.10;98.30
38784;DHT22;24531;45.502;12.238;2023-01-24T06:33:37;8.10;98.40
38784;DHT22;24531;45.502;12.238;2023-01-24T06:38:53;8.00;98.30
38784;DHT22;24531;45.502;12.238;2023-01-24T06:41:19;8.00;98.70
38784;DHT22;24531;45.502;12.238;2023-01-24T06:43:45;8.00;98.40
38784;DHT22;24531;45.502;12.238;2023-01-24T06:46:12;8.00;98.50
38784;DHT22;24531;45.502;12.238;2023-01-24T06:48:38;8.00;98.60
38784;DHT22;24531;45.502;12.238;2023-01-24T06:51:04;8.00;98.60
38784;DHT22;24531;45.502;12.238;2023-01-24T06:53:32;8.00;98.70
38784;DHT22;24531;45.502;12.238;2023-01-24T06:55:58;8.00;98.80
38784;DHT22;24531;45.502;12.238;2023-01-24T06:58:24;8.00;98.70
38784;DHT22;24531;45.502;12.238;2023-01-24T07:00:51;8.00;98.70
38784;DHT22;24531;45.502;12.238;2023-01-24T07:03:17;8.00;98.80
38784;DHT22;24531;45.502;12.238;2023-01-24T07:05:43;8.00;98.80
38784;DHT22;24531;45.502;12.238;2023-01-24T07:08:09;8.10;98.80
38784;DHT22;24531;45.502;12.238;2023-01-24T07:10:35;8.10;98.90
38784;DHT22;24531;45.502;12.238;2023-01-24T07:13:00;8.20;98.90
38784;DHT22;24531;45.502;12.238;2023-01-24T07:15:26;8.20;98.90
38784;DHT22;24531;45.502;12.238;2023-01-24T07:17:52;8.30;99.00
38784;DHT22;24531;45.502;12.238;2023-01-24T07:20:18;8.40;98.90
38784;DHT22;24531;45.502;12.238;2023-01-24T07:22:44;8.50;98.90
38784;DHT22;24531;45.502;12.238;2023-01-24T07:25:15;8.50;98.90
38784;DHT22;24531;45.502;12.238;2023-01-24T07:27:42;8.60;98.90
38784;DHT22;24531;45.502;12.238;2023-01-24T07:30:10;8.60;98.90
38784;DHT22;24531;45.502;12.238;2023-01-24T07:32:36;8.70;98.90
38784;DHT22;24531;45.502;12.238;2023-01-24T07:35:02;8.70;99.10
38784;DHT22;24531;45.502;12.238;2023-01-24T07:37:29;8.80;99.20
38784;DHT22;24531;45.502;12.238;2023-01-24T07:39:54;8.90;99.20
38784;DHT22;24531;45.502;12.238;2023-01-24T07:42:20;9.00;99.20
38784;DHT22;24531;45.502;12.238;2023-01-24T07:44:46;9.00;99.20
38784;DHT22;24531;45.502;12.238;2023-01-24T07:47:11;9.00;99.20
38784;DHT22;24531;45.502;12.238;2023-01-24T07:49:37;9.10;99.60
38784;DHT22;24531;45.502;12.238;2023-01-24T07:52:03;9.50;99.70
38784;DHT22;24531;45.502;12.238;2023-01-24T07:54:28;10.10;99.90
38784;DHT22;24531;45.502;12.238;2023-01-24T07:56:54;10.70;99.90
38784;DHT22;24531;45.502;12.238;2023-01-24T07:59:19;11.20;99.90
38784;DHT22;24531;45.502;12.238;2023-01-24T08:01:45;11.50;99.90
38784;DHT22;24531;45.502;12.238;2023-01-24T08:04:11;11.50;99.50
38784;DHT22;24531;45.502;12.238;2023-01-24T08:06:38;11.40;99.30
38784;DHT22;24531;45.502;12.238;2023-01-24T08:09:04;11.20;99.00
38784;DHT22;24531;45.502;12.238;2023-01-24T08:11:29;11.00;98.80
38784;DHT22;24531;45.502;12.238;2023-01-24T08:13:55;10.80;98.50
38784;DHT22;24531;45.502;12.238;2023-01-24T08:16:21;10.70;98.50
38784;DHT22;24531;45.502;12.238;2023-01-24T08:18:51;10.70;98.40
38784;DHT22;24531;45.502;12.238;2023-01-24T08:21:17;10.70;98.30
38784;DHT22;24531;45.502;12.238;2023-01-24T08:23:43;10.70;98.20
38784;DHT22;24531;45.502;12.238;2023-01-24T08:26:09;10.60;98.10
38784;DHT22;24531;45.502;12.238;2023-01-24T08:28:34;10.60;98.10
38784;DHT22;24531;45.502;12.238;2023-01-24T08:31:01;10.70;98.10
38784;DHT22;24531;45.502;12.238;2023-01-24T08:33:26;10.70;98.00
38784;DHT22;24531;45.502;12.238;2023-01-24T08:35:52;10.80;98.00
38784;DHT22;24531;45.502;12.238;2023-01-24T08:38:18;10.80;98.00
38784;DHT22;24531;45.502;12.238;2023-01-24T08:40:43;10.90;97.90
38784;DHT22;24531;45.502;12.238;2023-01-24T08:43:09;10.90;97.90
38784;DHT22;24531;45.502;12.238;2023-01-24T08:45:35;11.00;97.90
38784;DHT22;24531;45.502;12.238;2023-01-24T08:48:01;11.10;97.90
38784;DHT22;24531;45.502;12.238;2023-01-24T08:50:27;11.20;97.80
38784;DHT22;24531;45.502;12.238;2023-01-24T08:52:56;11.30;97.70
38784;DHT22;24531;45.502;12.238;2023-01-24T08:55:23;11.40;97.60
38784;DHT22;24531;45.502;12.238;2023-01-24T08:57:49;11.50;97.60
38784;DHT22;24531;45.502;12.238;2023-01-24T09:00:15;11.60;97.50
38784;DHT22;24531;45.502;12.238;2023-01-24T09:02:41;11.60;97.40
38784;DHT22;24531;45.502;12.238;2023-01-24T09:05:07;11.70;97.50
38784;DHT22;24531;45.502;12.238;2023-01-24T09:07:34;11.70;97.30
38784;DHT22;24531;45.502;12.238;2023-01-24T09:10:04;11.80;97.20
38784;DHT22;24531;45.502;12.238;2023-01-24T09:12:30;11.80;97.30
38784;DHT22;24531;45.502;12.238;2023-01-24T09:14:57;11.80;97.30
38784;DHT22;24531;45.502;12.238;2023-01-24T09:17:24;11.80;97.30
38784;DHT22;24531;45.502;12.238;2023-01-24T09:19:50;11.90;97.20
38784;DHT22;24531;45.502;12.238;2023-01-24T09:22:16;12.00;97.20
38784;DHT22;24531;45.502;12.238;2023-01-24T09:24:42;12.00;97.10
38784;DHT22;24531;45.502;12.238;2023-01-24T09:27:12;12.10;97.20
38784;DHT22;24531;45.502;12.238;2023-01-24T09:29:38;12.10;97.10
38784;DHT22;24531;45.502;12.238;2023-01-24T09:32:04;12.20;96.90
38784;DHT22;24531;45.502;12.238;2023-01-24T09:34:29;12.20;96.90
38784;DHT22;24531;45.502;12.238;2023-01-24T09:36:55;12.20;96.90
38784;DHT22;24531;45.502;12.238;2023-01-24T09:39:21;12.30;97.20
38784;DHT22;24531;45.502;12.238;2023-01-24T09:44:43;12.30;96.80
38784;DHT22;24531;45.502;12.238;2023-01-24T09:47:22;12.30;96.80
38784;DHT22;24531;45.502;12.238;2023-01-24T09:50:51;12.30;96.70
38784;DHT22;24531;45.502;12.238;2023-01-24T09:52:57;12.30;96.70
38784;DHT22;24531;45.502;12.238;2023-01-24T09:55:27;12.30;96.70
38784;DHT22;24531;45.502;12.238;2023-01-24T10:02:54;12.60;96.50
38784;DHT22;24531;45.502;12.238;2023-01-24T10:05:21;12.60;96.50
38784;DHT22;24531;45.502;12.238;2023-01-24T10:22:31;12.90;96.40
38784;DHT22;24531;45.502;12.238;2023-01-24T10:25:09;12.90;96.20
38784;DHT22;24531;45.502;12.238;2023-01-24T10:27:41;12.80;96.30
38784;DHT22;24531;45.502;12.238;2023-01-24T10:30:26;12.70;96.30
38784;DHT22;24531;45.502;12.238;2023-01-24T10:32:59;12.70;96.20
38784;DHT22;24531;45.502;12.238;2023-01-24T10:35:30;12.80;96.30
38784;DHT22;24531;45.502;12.238;2023-01-24T10:38:00;12.80;96.40
38784;DHT22;24531;45.502;12.238;2023-01-24T10:40:29;12.90;96.30
38784;DHT22;24531;45.502;12.238;2023-01-24T10:42:55;13.10;96.30
38784;DHT22;24531;45.502;12.238;2023-01-24T10:45:48;13.10;96.20
38784;DHT22;24531;45.502;12.238;2023-01-24T10:51:13;13.20;96.00
38784;DHT22;24531;45.502;12.238;2023-01-24T10:53:39;13.20;96.00
38784;DHT22;24531;45.502;12.238;2023-01-24T10:56:05;13.20;95.90
38784;DHT22;24531;45.502;12.238;2023-01-24T10:58:42;13.20;95.80
38784;DHT22;24531;45.502;12.238;2023-01-24T11:01:19;13.20;95.70
38784;DHT22;24531;45.502;12.238;2023-01-24T11:03:47;13.30;95.60
38784;DHT22;24531;45.502;12.238;2023-01-24T11:06:31;13.30;95.50
38784;DHT22;24531;45.502;12.238;2023-01-24T11:09:13;13.30;95.50
38784;DHT22;24531;45.502;12.238;2023-01-24T11:11:50;13.40;95.50
38784;DHT22;24531;45.502;12.238;2023-01-24T11:14:30;13.40;95.30
38784;DHT22;24531;45.502;12.238;2023-01-24T11:16:59;13.40;95.30
38784;DHT22;24531;45.502;12.238;2023-01-24T11:19:29;13.40;95.30
38784;DHT22;24531;45.502;12.238;2023-01-24T11:21:57;13.40;95.30
38784;DHT22;24531;45.502;12.238;2023-01-24T11:24:23;13.40;95.20
38784;DHT22;24531;45.502;12.238;2023-01-24T11:33:22;13.50;95.10
38784;DHT22;24531;45.502;12.238;2023-01-24T11:35:54;13.50;95.20
38784;DHT22;24531;45.502;12.238;2023-01-24T11:38:29;13.50;95.10
38784;DHT22;24531;45.502;12.238;2023-01-24T11:41:15;13.50;95.10
38784;DHT22;24531;45.502;12.238;2023-01-24T11:57:04;13.40;95.00
38784;DHT22;24531;45.502;12.238;2023-01-24T12:02:32;13.40;94.80
38784;DHT22;24531;45.502;12.238;2023-01-24T12:08:10;13.40;94.80
38784;DHT22;24531;45.502;12.238;2023-01-24T12:13:44;13.50;94.70
38784;DHT22;24531;45.502;12.238;2023-01-24T12:19:16;13.50;94.70
38784;DHT22;24531;45.502;12.238;2023-01-24T12:21:51;13.50;94.70
38784;DHT22;24531;45.502;12.238;2023-01-24T12:24:25;13.60;94.80
38784;DHT22;24531;45.502;12.238;2023-01-24T12:26:58;13.60;94.60
38784;DHT22;24531;45.502;12.238;2023-01-24T12:29:47;13.50;94.70
38784;DHT22;24531;45.502;12.238;2023-01-24T12:32:37;13.50;94.70
38784;DHT22;24531;45.502;12.238;2023-01-24T12:37:57;13.60;94.70
38784;DHT22;24531;45.502;12.238;2023-01-24T12:40:49;13.60;94.60
38784;DHT22;24531;45.502;12.238;2023-01-24T12:43:34;13.60;94.50
38784;DHT22;24531;45.502;12.238;2023-01-24T12:46:18;13.70;94.60
38784;DHT22;24531;45.502;12.238;2023-01-24T12:51:43;13.70;94.40
38784;DHT22;24531;45.502;12.238;2023-01-24T12:57:01;13.70;94.30
38784;DHT22;24531;45.502;12.238;2023-01-24T12:59:30;13.70;94.40
38784;DHT22;24531;45.502;12.238;2023-01-24T13:10:10;13.60;94.20
38784;DHT22;24531;45.502;12.238;2023-01-24T13:12:41;13.60;94.40
38784;DHT22;24531;45.502;12.238;2023-01-24T13:15:16;13.60;94.40
38784;DHT22;24531;45.502;12.238;2023-01-24T13:23:41;13.60;94.40
38784;DHT22;24531;45.502;12.238;2023-01-24T13:34:23;13.60;94.40
38784;DHT22;24531;45.502;12.238;2023-01-24T13:36:52;13.60;94.30
38784;DHT22;24531;45.502;12.238;2023-01-24T13:39:36;13.60;94.40
38784;DHT22;24531;45.502;12.238;2023-01-24T13:42:20;13.60;94.30
38784;DHT22;24531;45.502;12.238;2023-01-24T13:44:46;13.60;94.20
38784;DHT22;24531;45.502;12.238;2023-01-24T13:55:00;13.60;94.20
38784;DHT22;24531;45.502;12.238;2023-01-24T14:02:40;13.60;94.30
38784;DHT22;24531;45.502;12.238;2023-01-24T14:05:52;13.60;94.30
38784;DHT22;24531;45.502;12.238;2023-01-24T14:10:49;13.60;94.10
38784;DHT22;24531;45.502;12.238;2023-01-24T14:22:04;13.50;94.20
38784;DHT22;24531;45.502;12.238;2023-01-24T14:29:48;13.50;94.20
38784;DHT22;24531;45.502;12.238;2023-01-24T14:32:34;13.40;94.20
38784;DHT22;24531;45.502;12.238;2023-01-24T14:37:47;13.30;94.40
38784;DHT22;24531;45.502;12.238;2023-01-24T14:40:25;13.30;94.30
38784;DHT22;24531;45.502;12.238;2023-01-24T14:42:58;13.30;94.40
38784;DHT22;24531;45.502;12.238;2023-01-24T14:45:27;13.20;94.30
38784;DHT22;24531;45.502;12.238;2023-01-24T14:47:54;13.20;94.30
38784;DHT22;24531;45.502;12.238;2023-01-24T14:50:27;14.20;94.70
38784;DHT22;24531;45.502;12.238;2023-01-24T14:52:53;13.00;94.90
38784;DHT22;24531;45.502;12.238;2023-01-24T14:55:35;12.90;94.70
38784;DHT22;24531;45.502;12.238;2023-01-24T14:58:24;12.90;94.90
38784;DHT22;24531;45.502;12.238;2023-01-24T15:00:53;12.90;94.90
38784;DHT22;24531;45.502;12.238;2023-01-24T15:03:22;12.80;94.90
38784;DHT22;24531;45.502;12.238;2023-01-24T15:06:02;12.80;94.90
38784;DHT22;24531;45.502;12.238;2023-01-24T15:08:29;12.80;95.00
38784;DHT22;24531;45.502;12.238;2023-01-24T15:10:59;12.80;95.00
38784;DHT22;24531;45.502;12.238;2023-01-24T15:13:27;12.80;95.10
38784;DHT22;24531;45.502;12.238;2023-01-24T15:15:54;12.80;95.10
38784;DHT22;24531;45.502;12.238;2023-01-24T15:18:50;12.90;95.10
38784;DHT22;24531;45.502;12.238;2023-01-24T15:21:43;12.80;95.10
38784;DHT22;24531;45.502;12.238;2023-01-24T15:24:12;12.80;95.00
38784;DHT22;24531;45.502;12.238;2023-01-24T15:26:42;12.80;95.10
38784;DHT22;24531;45.502;12.238;2023-01-24T15:29:37;12.80;95.20
38784;DHT22;24531;45.502;12.238;2023-01-24T15:32:27;12.80;95.20
38784;DHT22;24531;45.502;12.238;2023-01-24T15:43:28;12.70;95.20
38784;DHT22;24531;45.502;12.238;2023-01-24T15:46:28;12.70;95.40
38784;DHT22;24531;45.502;12.238;2023-01-24T15:54:39;12.50;95.70
38784;DHT22;24531;45.502;12.238;2023-01-24T15:57:34;12.50;95.70
38784;DHT22;24531;45.502;12.238;2023-01-24T16:02:35;12.50;95.80
38784;DHT22;24531;45.502;12.238;2023-01-24T16:05:04;12.50;95.90
38784;DHT22;24531;45.502;12.238;2023-01-24T16:07:30;12.50;96.00
38784;DHT22;24531;45.502;12.238;2023-01-24T16:09:56;12.50;95.90
38784;DHT22;24531;45.502;12.238;2023-01-24T16:12:22;12.40;96.00
38784;DHT22;24531;45.502;12.238;2023-01-24T16:14:52;12.50;96.00
38784;DHT22;24531;45.502;12.238;2023-01-24T16:17:21;12.40;96.00
38784;DHT22;24531;45.502;12.238;2023-01-24T16:19:50;12.40;96.10
38784;DHT22;24531;45.502;12.238;2023-01-24T16:22:16;12.40;96.10
38784;DHT22;24531;45.502;12.238;2023-01-24T16:24:42;12.40;96.10
38784;DHT22;24531;45.502;12.238;2023-01-24T16:27:12;12.40;96.50
38784;DHT22;24531;45.502;12.238;2023-01-24T16:29:38;12.40;96.20
38784;DHT22;24531;45.502;12.238;2023-01-24T16:32:20;12.40;96.20
38784;DHT22;24531;45.502;12.238;2023-01-24T16:34:46;12.30;96.20
38784;DHT22;24531;45.502;12.238;2023-01-24T16:37:12;12.40;96.20
38784;DHT22;24531;45.502;12.238;2023-01-24T16:39:39;12.30;96.20
38784;DHT22;24531;45.502;12.238;2023-01-24T16:42:09;12.30;96.20
38784;DHT22;24531;45.502;12.238;2023-01-24T16:44:37;12.30;96.20
38784;DHT22;24531;45.502;12.238;2023-01-24T16:47:03;12.30;96.20
38784;DHT22;24531;45.502;12.238;2023-01-24T16:49:28;12.30;96.20
38784;DHT22;24531;45.502;12.238;2023-01-24T16:51:54;12.30;96.30
38784;DHT22;24531;45.502;12.238;2023-01-24T16:54:19;12.20;96.30
38784;DHT22;24531;45.502;12.238;2023-01-24T16:56:45;12.20;96.30
38784;DHT22;24531;45.502;12.238;2023-01-24T16:59:11;12.20;96.40
38784;DHT22;24531;45.502;12.238;2023-01-24T17:01:36;12.20;96.40
38784;DHT22;24531;45.502;12.238;2023-01-24T17:04:02;12.10;96.30
38784;DHT22;24531;45.502;12.238;2023-01-24T17:06:28;12.60;96.70
38784;DHT22;24531;45.502;12.238;2023-01-24T17:08:54;12.00;96.50
38784;DHT22;24531;45.502;12.238;2023-01-24T17:11:20;12.00;96.60
38784;DHT22;24531;45.502;12.238;2023-01-24T17:13:48;12.00;96.60
38784;DHT22;24531;45.502;12.238;2023-01-24T17:16:14;12.00;96.70
38784;DHT22;24531;45.502;12.238;2023-01-24T17:18:39;12.00;96.80
38784;DHT22;24531;45.502;12.238;2023-01-24T17:21:08;12.00;96.80
38784;DHT22;24531;45.502;12.238;2023-01-24T17:23:35;11.90;96.80
38784;DHT22;24531;45.502;12.238;2023-01-24T17:26:05;12.00;97.00
38784;DHT22;24531;45.502;12.238;2023-01-24T17:28:31;12.00;96.90
38784;DHT22;24531;45.502;12.238;2023-01-24T17:30:57;11.90;97.00
38784;DHT22;24531;45.502;12.238;2023-01-24T17:33:23;12.00;97.10
38784;DHT22;24531;45.502;12.238;2023-01-24T17:35:48;12.00;97.10
38784;DHT22;24531;45.502;12.238;2023-01-24T17:38:14;12.00;97.10
38784;DHT22;24531;45.502;12.238;2023-01-24T17:40:40;11.90;97.20
38784;DHT22;24531;45.502;12.238;2023-01-24T17:43:06;12.00;97.20
38784;DHT22;24531;45.502;12.238;2023-01-24T17:45:31;12.00;97.20
38784;DHT22;24531;45.502;12.238;2023-01-24T17:47:57;11.90;97.20
38784;DHT22;24531;45.502;12.238;2023-01-24T17:50:23;11.90;97.20
38784;DHT22;24531;45.502;12.238;2023-01-24T17:52:49;11.80;97.20
38784;DHT22;24531;45.502;12.238;2023-01-24T17:55:14;11.90;97.20
38784;DHT22;24531;45.502;12.238;2023-01-24T17:57:42;11.90;97.30
38784;DHT22;24531;45.502;12.238;2023-01-24T18:00:10;11.80;97.20
38784;DHT22;24531;45.502;12.238;2023-01-24T18:02:35;11.80;97.30
38784;DHT22;24531;45.502;12.238;2023-01-24T18:05:01;11.80;97.30
38784;DHT22;24531;45.502;12.238;2023-01-24T18:07:27;11.80;97.40
38784;DHT22;24531;45.502;12.238;2023-01-24T18:09:53;11.90;97.50